createdAt,value
2022-09-01T00:00:55.348Z,18.91
2022-09-01T00:01:57.877Z,18.87
2022-09-01T00:03:00.124Z,18.84
2022-09-01T00:04:03.487Z,18.85
2022-09-01T00:05:07.723Z,18.94
2022-09-01T00:06:11.645Z,18.78
2022-09-01T00:07:14.658Z,18.90
2022-09-01T00:08:18.570Z,18.82
2022-09-01T00:09:23.041Z,18.89
2022-09-01T00:10:25.553Z,18.81
2022-09-01T00:11:28.858Z,18.85
2022-09-01T00:12:31.166Z,18.63
2022-09-01T00:13:34.026Z,18.70
2022-09-01T00:14:41.585Z,18.87
2022-09-01T00:15:44.392Z,18.74
2022-09-01T00:16:46.627Z,18.65
2022-09-01T00:17:54.361Z,18.75
2022-09-01T00:18:56.753Z,18.68
2022-09-01T00:19:59.020Z,18.61
2022-09-01T00:21:01.238Z,18.61
2022-09-01T00:22:04.972Z,18.79
2022-09-01T00:23:07.145Z,18.62
2022-09-01T00:24:10.661Z,18.69
2022-09-01T00:25:12.868Z,18.59
2022-09-01T00:26:15.102Z,18.62
2022-09-01T00:27:17.811Z,18.65
2022-09-01T00:28:20.744Z,18.47
2022-09-01T00:29:28.188Z,18.51
2022-09-01T00:30:30.712Z,18.56
2022-09-01T00:31:33.795Z,18.61
2022-09-01T00:32:36.370Z,18.61
2022-09-01T00:33:39.102Z,18.72
2022-09-01T00:34:41.451Z,18.65
2022-09-01T00:35:43.618Z,18.67
2022-09-01T00:36:45.850Z,18.56
2022-09-01T00:37:49.222Z,18.59
2022-09-01T00:38:52.114Z,18.58
2022-09-01T00:39:54.368Z,18.53
2022-09-01T00:40:56.599Z,18.54
2022-09-01T00:41:59.608Z,18.53
2022-09-01T00:43:10.548Z,18.53
2022-09-01T00:44:14.708Z,18.91
2022-09-01T00:45:16.908Z,18.56
2022-09-01T00:46:28.903Z,18.76
2022-09-01T00:47:31.430Z,18.51
2022-09-01T00:48:33.854Z,18.45
2022-09-01T00:49:43.106Z,18.73
2022-09-01T00:50:47.263Z,18.54
2022-09-01T00:51:57.485Z,18.67
2022-09-01T00:53:00.153Z,18.43
2022-09-01T00:54:05.990Z,18.56
2022-09-01T00:55:13.186Z,18.67
2022-09-01T00:56:15.710Z,18.41
2022-09-01T00:57:18.208Z,18.38
2022-09-01T00:58:21.220Z,18.39
2022-09-01T00:59:24.726Z,18.38
2022-09-01T01:00:30.458Z,18.55
2022-09-01T01:01:35.531Z,18.35
2022-09-01T01:02:40.519Z,18.41
2022-09-01T01:03:45.476Z,18.33
2022-09-01T01:04:47.677Z,18.38
2022-09-01T01:05:55.083Z,18.56
2022-09-01T01:07:01.635Z,18.58
2022-09-01T01:08:05.035Z,18.42
2022-09-01T01:09:07.225Z,18.35
2022-09-01T01:10:12.301Z,18.55
2022-09-01T01:11:18.875Z,18.62
2022-09-01T01:12:21.790Z,18.58
2022-09-01T01:13:27.550Z,18.38
2022-09-01T01:14:31.933Z,18.45
2022-09-01T01:15:34.422Z,18.45
2022-09-01T01:16:37.650Z,18.51
2022-09-01T01:17:40.727Z,18.62
2022-09-01T01:18:43.364Z,18.61
2022-09-01T01:20:07.159Z,18.74
2022-09-01T01:21:39.020Z,18.92
2022-09-01T01:23:08.998Z,18.91
2022-09-01T01:24:34.803Z,18.96
2022-09-01T01:25:53.794Z,19.00
2022-09-01T01:27:00.146Z,18.57
2022-09-01T01:28:13.470Z,18.92
2022-09-01T01:29:17.582Z,18.60
2022-09-01T01:30:20.972Z,18.66
2022-09-01T01:31:24.224Z,18.68
2022-09-01T01:32:26.882Z,18.70
2022-09-01T01:33:34.457Z,19.00
2022-09-01T01:34:38.456Z,18.76
2022-09-01T01:35:41.937Z,18.85
2022-09-01T01:36:44.405Z,18.89
2022-09-01T01:37:49.921Z,18.93
2022-09-01T01:38:53.921Z,18.80
2022-09-01T01:39:56.182Z,18.88
2022-09-01T01:40:58.714Z,18.80
2022-09-01T01:42:00.959Z,18.76
2022-09-01T01:43:05.112Z,19.00
2022-09-01T01:44:08.458Z,18.99
2022-09-01T01:45:13.042Z,18.99
2022-09-01T01:46:18.135Z,19.00
2022-09-01T01:47:20.606Z,18.98
2022-09-01T01:48:24.558Z,19.10
2022-09-01T01:49:29.086Z,19.31
2022-09-01T01:50:35.929Z,19.32
2022-09-01T01:51:39.659Z,19.20
2022-09-01T01:52:45.448Z,19.17
2022-09-01T01:53:52.672Z,19.22
2022-09-01T01:54:55.437Z,19.21
2022-09-01T01:56:00.890Z,19.24
2022-09-01T01:57:08.333Z,19.15
2022-09-01T01:58:14.963Z,19.22
2022-09-01T01:59:19.288Z,19.18
2022-09-01T02:00:30.070Z,19.29
2022-09-01T02:01:33.366Z,19.08
2022-09-01T02:02:38.080Z,19.14
2022-09-01T02:03:40.756Z,19.13
2022-09-01T02:04:43.519Z,19.13
2022-09-01T02:05:48.491Z,19.24
2022-09-01T02:06:51.372Z,19.08
2022-09-01T02:08:03.990Z,19.36
2022-09-01T02:09:06.939Z,19.01
2022-09-01T02:10:09.432Z,19.12
2022-09-01T02:11:13.097Z,19.10
2022-09-01T02:12:19.111Z,19.11
2022-09-01T02:13:25.208Z,19.24
2022-09-01T02:14:28.969Z,19.16
2022-09-01T02:15:43.699Z,19.22
2022-09-01T02:16:46.042Z,19.19
2022-09-01T02:17:48.874Z,19.23
2022-09-01T02:18:53.896Z,19.28
2022-09-01T02:19:57.509Z,19.28
2022-09-01T02:21:00.914Z,19.31
2022-09-01T02:22:03.183Z,19.28
2022-09-01T02:23:10.734Z,19.22
2022-09-01T02:24:13.663Z,19.27
2022-09-01T02:25:16.621Z,19.29
2022-09-01T02:26:19.104Z,19.24
2022-09-01T02:27:26.891Z,19.27
2022-09-01T02:28:32.968Z,19.48
2022-09-01T02:29:40.289Z,19.31
2022-09-01T02:30:49.398Z,19.43
2022-09-01T02:31:53.758Z,19.44
2022-09-01T02:32:55.964Z,19.35
2022-09-01T02:33:58.969Z,19.40
2022-09-01T02:35:01.894Z,19.27
2022-09-01T02:36:13.279Z,19.52
2022-09-01T02:37:16.021Z,19.28
2022-09-01T02:38:21.064Z,19.34
2022-09-01T02:39:28.907Z,19.57
2022-09-01T02:40:33.106Z,19.44
2022-09-01T02:41:35.441Z,19.24
2022-09-01T02:42:43.384Z,19.42
2022-09-01T02:43:46.536Z,19.25
2022-09-01T02:44:48.760Z,19.25
2022-09-01T02:45:57.606Z,19.31
2022-09-01T02:47:01.696Z,19.26
2022-09-01T02:48:10.883Z,19.35
2022-09-01T02:49:25.779Z,19.51
2022-09-01T02:50:29.193Z,19.22
2022-09-01T02:51:31.635Z,19.29
2022-09-01T02:52:37.563Z,19.22
2022-09-01T02:53:42.681Z,19.32
2022-09-01T02:54:47.124Z,19.26
2022-09-01T02:55:49.406Z,19.28
2022-09-01T02:56:54.753Z,19.34
2022-09-01T02:57:59.464Z,19.14
2022-09-01T02:59:03.106Z,19.20
2022-09-01T03:00:20.612Z,19.31
2022-09-01T03:01:30.041Z,19.37
2022-09-01T03:02:33.810Z,19.11
2022-09-01T03:03:36.035Z,19.04
2022-09-01T03:04:38.909Z,19.06
2022-09-01T03:05:41.130Z,19.04
2022-09-01T03:06:44.675Z,19.02
2022-09-01T03:07:48.156Z,19.00
2022-09-01T03:08:54.555Z,19.09
2022-09-01T03:09:56.788Z,18.96
2022-09-01T03:10:59.750Z,18.89
2022-09-01T03:12:02.218Z,18.86
2022-09-01T03:13:09.286Z,19.14
2022-09-01T03:14:12.359Z,18.97
2022-09-01T03:15:14.575Z,18.89
2022-09-01T03:16:17.226Z,18.93
2022-09-01T03:17:19.577Z,18.92
2022-09-01T03:18:21.992Z,18.87
2022-09-01T03:19:24.341Z,18.96
2022-09-01T03:20:30.114Z,19.03
2022-09-01T03:21:32.377Z,18.99
2022-09-01T03:22:34.553Z,18.93
2022-09-01T03:23:37.975Z,18.94
2022-09-01T03:24:40.304Z,18.97
2022-09-01T03:25:44.190Z,19.08
2022-09-01T03:26:49.758Z,19.06
2022-09-01T03:27:52.929Z,18.98
2022-09-01T03:28:55.706Z,18.96
2022-09-01T03:29:58.221Z,18.90
2022-09-01T03:31:00.500Z,18.91
2022-09-01T03:32:03.063Z,18.91
2022-09-01T03:33:05.614Z,18.91
2022-09-01T03:34:10.930Z,18.94
2022-09-01T03:35:17.898Z,18.90
2022-09-01T03:36:20.350Z,18.86
2022-09-01T03:37:23.323Z,18.85
2022-09-01T03:38:29.578Z,18.84
2022-09-01T03:39:31.956Z,18.81
2022-09-01T03:40:36.565Z,18.98
2022-09-01T03:41:38.804Z,18.82
2022-09-01T03:42:41.051Z,18.82
2022-09-01T03:43:46.922Z,18.94
2022-09-01T03:44:49.618Z,18.80
2022-09-01T03:45:52.099Z,18.79
2022-09-01T03:46:54.344Z,18.81
2022-09-01T03:47:56.992Z,18.79
2022-09-01T03:49:02.085Z,18.91
2022-09-01T03:50:05.718Z,18.92
2022-09-01T03:51:09.665Z,18.86
2022-09-01T03:52:12.209Z,18.86
2022-09-01T03:53:17.367Z,19.01
2022-09-01T03:54:24.864Z,18.90
2022-09-01T03:55:31.071Z,19.02
2022-09-01T03:56:33.988Z,18.83
2022-09-01T03:57:42.445Z,18.82
2022-09-01T03:58:47.009Z,18.79
2022-09-01T03:59:51.681Z,18.80
2022-09-01T04:01:02.059Z,18.98
2022-09-01T04:02:04.650Z,18.88
2022-09-01T04:03:09.278Z,19.05
2022-09-01T04:04:15.368Z,18.92
2022-09-01T04:05:22.984Z,19.07
2022-09-01T04:06:26.024Z,18.77
2022-09-01T04:07:28.902Z,18.81
2022-09-01T04:08:32.562Z,18.78
2022-09-01T04:09:35.367Z,18.79
2022-09-01T04:10:54.391Z,19.04
2022-09-01T04:11:57.167Z,18.83
2022-09-01T04:12:59.951Z,18.83
2022-09-01T04:14:02.486Z,18.72
2022-09-01T04:15:08.702Z,18.83
2022-09-01T04:16:39.493Z,19.06
2022-09-01T04:18:00.351Z,18.72
2022-09-01T04:19:09.269Z,18.81
2022-09-01T04:20:11.810Z,18.80
2022-09-01T04:21:14.042Z,18.70
2022-09-01T04:22:17.614Z,18.71
2022-09-01T04:23:30.116Z,18.88
2022-09-01T04:24:34.809Z,18.73
2022-09-01T04:25:39.120Z,18.81
2022-09-01T04:26:42.713Z,18.88
2022-09-01T04:27:47.572Z,18.75
2022-09-01T04:28:51.021Z,18.72
2022-09-01T04:29:57.469Z,18.70
2022-09-01T04:31:06.037Z,18.88
2022-09-01T04:32:15.691Z,18.77
2022-09-01T04:33:22.806Z,18.75
2022-09-01T04:34:26.267Z,18.77
2022-09-01T04:35:32.546Z,18.74
2022-09-01T04:36:45.700Z,18.94
2022-09-01T04:37:50.463Z,18.77
2022-09-01T04:38:57.672Z,18.98
2022-09-01T04:40:01.274Z,18.72
2022-09-01T04:41:06.681Z,18.87
2022-09-01T04:42:09.471Z,18.70
2022-09-01T04:43:12.044Z,18.74
2022-09-01T04:44:16.811Z,18.79
2022-09-01T04:45:25.253Z,18.76
2022-09-01T04:46:32.086Z,18.83
2022-09-01T04:47:36.089Z,18.82
2022-09-01T04:48:45.068Z,18.82
2022-09-01T04:49:49.013Z,18.87
2022-09-01T04:50:52.406Z,18.99
2022-09-01T04:52:06.863Z,18.96
2022-09-01T04:53:12.036Z,19.00
2022-09-01T04:54:17.718Z,19.03
2022-09-01T04:55:21.403Z,19.01
2022-09-01T04:56:25.517Z,19.04
2022-09-01T04:57:49.802Z,19.13
2022-09-01T04:58:56.767Z,19.00
2022-09-01T04:59:59.860Z,19.00
2022-09-01T05:01:06.505Z,19.01
2022-09-01T05:02:10.020Z,19.02
2022-09-01T05:03:12.254Z,19.01
2022-09-01T05:04:33.953Z,19.07
2022-09-01T05:05:46.151Z,19.37
2022-09-01T05:06:55.999Z,19.28
2022-09-01T05:07:58.494Z,19.14
2022-09-01T05:09:00.712Z,19.17
2022-09-01T05:10:15.556Z,19.16
2022-09-01T05:11:46.242Z,19.13
2022-09-01T05:12:57.197Z,19.20
2022-09-01T05:13:59.453Z,19.02
2022-09-01T05:15:06.378Z,19.19
2022-09-01T05:16:12.899Z,19.39
2022-09-01T05:17:17.200Z,19.17
2022-09-01T05:18:24.655Z,19.34
2022-09-01T05:19:30.775Z,19.26
2022-09-01T05:20:38.225Z,19.23
2022-09-01T05:21:46.052Z,19.46
2022-09-01T05:22:48.433Z,19.24
2022-09-01T05:23:51.811Z,19.33
2022-09-01T05:24:55.038Z,19.28
2022-09-01T05:25:57.991Z,19.26
2022-09-01T05:27:00.531Z,19.35
2022-09-01T05:28:03.421Z,19.32
2022-09-01T05:29:13.378Z,19.34
2022-09-01T05:30:18.070Z,19.45
2022-09-01T05:31:22.938Z,19.50
2022-09-01T05:32:27.033Z,19.47
2022-09-01T05:33:29.272Z,19.38
2022-09-01T05:34:33.230Z,19.48
2022-09-01T05:35:37.489Z,19.49
2022-09-01T05:36:43.666Z,19.74
2022-09-01T05:37:47.020Z,19.42
2022-09-01T05:38:51.017Z,19.52
2022-09-01T05:39:53.360Z,19.50
2022-09-01T05:41:04.410Z,19.67
2022-09-01T05:42:10.923Z,19.55
2022-09-01T05:43:14.877Z,19.60
2022-09-01T05:44:18.418Z,19.58
2022-09-01T05:45:23.328Z,19.61
2022-09-01T05:46:28.106Z,19.69
2022-09-01T05:47:33.197Z,19.66
2022-09-01T05:48:39.846Z,19.77
2022-09-01T05:49:43.491Z,19.69
2022-09-01T05:50:46.793Z,19.69
2022-09-01T05:51:53.095Z,19.87
2022-09-01T05:52:56.843Z,19.77
2022-09-01T05:53:59.267Z,19.86
2022-09-01T05:55:03.985Z,19.91
2022-09-01T05:56:09.214Z,20.07
2022-09-01T05:57:33.126Z,20.10
2022-09-01T05:59:57.967Z,20.15
2022-09-01T06:01:02.255Z,20.24
2022-09-01T06:02:08.833Z,20.23
2022-09-01T06:03:11.870Z,20.29
2022-09-01T06:04:17.733Z,20.34
2022-09-01T06:05:20.924Z,20.31
2022-09-01T06:06:33.939Z,20.49
2022-09-01T06:07:47.188Z,20.13
2022-09-01T06:08:50.814Z,20.25
2022-09-01T06:09:53.692Z,20.22
2022-09-01T06:10:58.056Z,20.29
2022-09-01T06:12:01.884Z,20.35
2022-09-01T06:13:06.030Z,20.47
2022-09-01T06:14:11.235Z,20.51
2022-09-01T06:15:16.385Z,20.48
2022-09-01T06:16:24.707Z,20.74
2022-09-01T06:17:30.077Z,20.72
2022-09-01T06:18:36.950Z,20.86
2022-09-01T06:19:40.023Z,20.72
2022-09-01T06:20:44.160Z,20.97
2022-09-01T06:21:48.735Z,20.84
2022-09-01T06:22:55.171Z,21.02
2022-09-01T06:23:58.752Z,21.16
2022-09-01T06:25:02.703Z,20.95
2022-09-01T06:26:27.644Z,21.28
2022-09-01T06:27:32.974Z,21.21
2022-09-01T06:28:36.083Z,21.04
2022-09-01T06:29:39.793Z,21.34
2022-09-01T06:30:43.565Z,21.25
2022-09-01T06:31:51.716Z,21.19
2022-09-01T06:32:55.229Z,21.16
2022-09-01T06:33:57.711Z,21.06
2022-09-01T06:35:00.458Z,20.84
2022-09-01T06:36:06.107Z,21.08
2022-09-01T06:37:08.334Z,21.21
2022-09-01T06:38:12.837Z,21.49
2022-09-01T06:39:21.041Z,21.42
2022-09-01T06:40:27.868Z,21.56
2022-09-01T06:41:31.521Z,21.50
2022-09-01T06:42:35.301Z,21.77
2022-09-01T06:43:39.212Z,21.54
2022-09-01T06:44:41.428Z,21.68
2022-09-01T06:45:55.317Z,22.74
2022-09-01T06:47:02.421Z,22.85
2022-09-01T06:48:04.906Z,23.08
2022-09-01T06:49:11.590Z,23.17
2022-09-01T06:51:51.857Z,23.42
2022-09-01T06:54:34.183Z,23.47
2022-09-01T06:55:38.647Z,24.04
2022-09-01T06:56:44.650Z,23.75
2022-09-01T06:58:09.687Z,24.36
2022-09-01T06:59:16.542Z,24.95
2022-09-01T07:00:26.731Z,25.82
2022-09-01T07:01:30.433Z,26.68
2022-09-01T07:02:33.971Z,27.12
2022-09-01T07:03:58.714Z,28.06
2022-09-01T07:08:23.493Z,28.81
2022-09-01T07:10:05.718Z,28.80
2022-09-01T07:13:06.085Z,29.93
2022-09-01T07:14:16.089Z,29.51
2022-09-01T07:16:52.090Z,29.95
2022-09-01T07:17:58.410Z,30.07
2022-09-01T07:19:02.530Z,30.52
2022-09-01T07:20:24.804Z,30.95
2022-09-01T07:23:04.149Z,32.00
2022-09-01T07:24:10.493Z,32.17
2022-09-01T07:26:08.126Z,32.60
2022-09-01T07:27:18.627Z,32.27
2022-09-01T07:28:39.974Z,31.92
2022-09-01T07:29:42.940Z,32.57
2022-09-01T07:30:48.575Z,33.19
2022-09-01T07:34:47.878Z,33.40
2022-09-01T07:43:32.638Z,33.18
2022-09-01T07:45:32.662Z,33.55
2022-09-01T07:46:37.971Z,33.35
2022-09-01T07:47:52.756Z,33.76
2022-09-01T07:49:29.546Z,33.66
2022-09-01T07:51:44.010Z,32.61
2022-09-01T07:52:49.678Z,32.13
2022-09-01T07:53:52.948Z,31.89
2022-09-01T07:54:55.316Z,31.79
2022-09-01T07:56:01.328Z,31.60
2022-09-01T07:57:05.399Z,31.63
2022-09-01T07:58:09.903Z,31.93
2022-09-01T07:59:14.649Z,32.31
2022-09-01T08:00:31.507Z,32.65
2022-09-01T08:01:38.658Z,32.49
2022-09-01T08:02:44.311Z,32.57
2022-09-01T08:03:52.273Z,32.42
2022-09-01T08:04:55.726Z,32.05
2022-09-01T08:06:07.956Z,32.01
2022-09-01T08:07:15.432Z,31.69
2022-09-01T08:08:18.883Z,31.83
2022-09-01T08:09:37.756Z,31.46
2022-09-01T08:10:43.082Z,31.79
2022-09-01T08:12:01.527Z,31.93
2022-09-01T08:13:04.579Z,32.31
2022-09-01T08:14:07.757Z,32.21
2022-09-01T08:15:14.220Z,32.64
2022-09-01T08:16:52.030Z,32.58
2022-09-01T08:17:54.858Z,32.49
2022-09-01T08:18:59.939Z,32.50
2022-09-01T08:20:08.671Z,31.88
2022-09-01T08:21:25.330Z,32.14
2022-09-01T08:22:38.144Z,32.62
2022-09-01T08:23:52.902Z,32.68
2022-09-01T08:24:55.651Z,32.95
2022-09-01T08:25:58.345Z,32.71
2022-09-01T08:27:00.703Z,33.13
2022-09-01T08:28:04.439Z,33.44
2022-09-01T08:29:06.817Z,33.46
2022-09-01T08:30:13.945Z,33.73
2022-09-01T08:31:19.483Z,33.49
2022-09-01T08:32:23.595Z,33.83
2022-09-01T08:33:26.874Z,33.90
2022-09-01T08:34:32.738Z,32.97
2022-09-01T08:35:35.706Z,33.44
2022-09-01T08:36:38.690Z,34.07
2022-09-01T08:37:43.598Z,33.96
2022-09-01T08:38:46.087Z,33.91
2022-09-01T08:39:49.509Z,34.30
2022-09-01T08:40:57.464Z,34.99
2022-09-01T08:42:21.037Z,34.95
2022-09-01T08:43:54.447Z,35.44
2022-09-01T08:45:27.625Z,34.95
2022-09-01T08:46:35.065Z,34.74
2022-09-01T08:47:56.564Z,34.94
2022-09-01T08:49:24.855Z,35.55
2022-09-01T08:50:45.561Z,35.76
2022-09-01T08:52:31.181Z,36.83
2022-09-01T08:53:51.533Z,37.10
2022-09-01T08:55:00.187Z,36.19
2022-09-01T08:56:04.652Z,36.54
2022-09-01T08:57:20.706Z,35.16
2022-09-01T08:58:41.325Z,36.37
2022-09-01T09:00:13.684Z,36.91
2022-09-01T09:01:27.605Z,36.86
2022-09-01T09:03:17.249Z,36.74
2022-09-01T09:04:47.553Z,36.41
2022-09-01T09:05:57.417Z,37.11
2022-09-01T09:06:59.526Z,36.53
2022-09-01T09:08:11.539Z,36.43
2022-09-01T09:09:13.757Z,36.16
2022-09-01T09:10:15.878Z,36.27
2022-09-01T09:11:46.645Z,36.94
2022-09-01T09:12:56.683Z,36.80
2022-09-01T09:14:25.765Z,37.18
2022-09-01T09:15:48.033Z,37.70
2022-09-01T09:16:54.321Z,37.45
2022-09-01T09:18:05.659Z,37.26
2022-09-01T09:19:26.359Z,37.46
2022-09-01T09:20:29.454Z,37.19
2022-09-01T09:21:41.190Z,37.56
2022-09-01T09:22:47.641Z,37.02
2022-09-01T09:23:56.705Z,37.25
2022-09-01T09:25:17.536Z,36.28
2022-09-01T09:26:22.419Z,35.99
2022-09-01T09:27:30.780Z,36.37
2022-09-01T09:28:33.045Z,35.51
2022-09-01T09:29:35.192Z,36.33
2022-09-01T09:30:38.555Z,36.68
2022-09-01T09:31:46.161Z,36.91
2022-09-01T09:33:30.893Z,36.27
2022-09-01T09:34:37.727Z,36.55
2022-09-01T09:35:45.063Z,36.62
2022-09-01T09:36:53.855Z,36.03
2022-09-01T09:37:56.842Z,36.54
2022-09-01T09:39:06.723Z,37.29
2022-09-01T09:40:26.921Z,36.72
2022-09-01T09:41:29.361Z,36.85
2022-09-01T09:42:35.135Z,36.80
2022-09-01T09:43:47.582Z,36.75
2022-09-01T09:44:52.873Z,36.72
2022-09-01T09:46:25.218Z,36.93
2022-09-01T09:47:46.609Z,36.09
2022-09-01T09:48:50.628Z,35.47
2022-09-01T09:50:12.532Z,35.59
2022-09-01T09:51:22.440Z,36.06
2022-09-01T09:52:24.701Z,35.64
2022-09-01T09:53:34.611Z,36.42
2022-09-01T09:54:39.645Z,36.92
2022-09-01T09:56:01.264Z,36.30
2022-09-01T09:57:09.407Z,37.02
2022-09-01T09:58:12.580Z,36.83
2022-09-01T09:59:33.922Z,37.32
2022-09-01T10:01:00.915Z,36.98
2022-09-01T10:02:15.805Z,37.73
2022-09-01T10:03:34.015Z,37.78
2022-09-01T10:04:38.877Z,37.44
2022-09-01T10:05:43.302Z,36.70
2022-09-01T10:06:46.817Z,36.47
2022-09-01T10:07:49.846Z,35.81
2022-09-01T10:08:52.112Z,35.90
2022-09-01T10:09:56.086Z,36.41
2022-09-01T10:10:58.891Z,36.63
2022-09-01T10:12:02.915Z,36.79
2022-09-01T10:13:10.650Z,36.18
2022-09-01T10:14:52.166Z,36.94
2022-09-01T10:15:55.969Z,37.43
2022-09-01T10:17:03.808Z,37.91
2022-09-01T10:18:32.101Z,36.79
2022-09-01T10:19:35.957Z,36.84
2022-09-01T10:20:39.333Z,36.37
2022-09-01T10:21:43.296Z,36.22
2022-09-01T10:22:48.394Z,36.24
2022-09-01T10:23:51.879Z,35.50
2022-09-01T10:24:54.154Z,34.96
2022-09-01T10:26:02.268Z,35.71
2022-09-01T10:27:17.420Z,35.90
2022-09-01T10:28:24.559Z,36.98
2022-09-01T10:29:47.903Z,36.94
2022-09-01T10:30:52.639Z,36.33
2022-09-01T10:32:28.084Z,36.18
2022-09-01T10:33:22.092Z,36.16
2022-09-01T10:34:25.808Z,36.38
2022-09-01T10:35:49.561Z,35.99
2022-09-01T10:36:56.064Z,36.38
2022-09-01T10:38:04.655Z,37.19
2022-09-01T10:39:11.522Z,37.31
2022-09-01T10:40:14.099Z,36.89
2022-09-01T10:41:59.321Z,36.73
2022-09-01T10:43:30.638Z,37.18
2022-09-01T10:44:57.796Z,36.55
2022-09-01T10:46:06.057Z,36.20
2022-09-01T10:47:33.920Z,37.51
2022-09-01T10:48:48.597Z,37.48
2022-09-01T10:49:54.319Z,37.28
2022-09-01T10:51:18.385Z,38.27
2022-09-01T10:52:43.226Z,38.55
2022-09-01T10:53:46.991Z,38.44
2022-09-01T10:54:57.598Z,36.92
2022-09-01T10:56:28.135Z,37.31
2022-09-01T10:57:43.465Z,37.42
2022-09-01T11:01:10.601Z,38.11
2022-09-01T11:03:40.985Z,37.32
2022-09-01T11:04:49.883Z,37.40
2022-09-01T11:06:11.374Z,38.18
2022-09-01T11:07:44.277Z,38.29
2022-09-01T11:09:00.455Z,37.84
2022-09-01T11:10:32.751Z,37.17
2022-09-01T11:11:46.026Z,37.52
2022-09-01T11:13:10.367Z,37.65
2022-09-01T11:14:26.448Z,38.17
2022-09-01T11:15:39.622Z,38.47
2022-09-01T11:16:47.243Z,38.36
2022-09-01T11:17:53.035Z,38.95
2022-09-01T11:18:56.919Z,38.09
2022-09-01T11:20:11.387Z,38.61
2022-09-01T11:21:29.069Z,39.24
2022-09-01T11:22:35.136Z,38.37
2022-09-01T11:23:37.376Z,38.11
2022-09-01T11:24:40.275Z,38.09
2022-09-01T11:25:46.552Z,38.08
2022-09-01T11:26:49.639Z,36.51
2022-09-01T11:27:51.732Z,36.86
2022-09-01T11:28:53.970Z,36.95
2022-09-01T11:29:59.878Z,37.92
2022-09-01T11:31:14.728Z,39.17
2022-09-01T11:32:18.503Z,38.68
2022-09-01T11:33:32.775Z,37.06
2022-09-01T11:34:42.965Z,36.38
2022-09-01T11:35:46.014Z,36.88
2022-09-01T11:37:01.799Z,37.34
2022-09-01T11:38:07.854Z,37.06
2022-09-01T11:39:14.271Z,37.34
2022-09-01T11:40:24.463Z,37.75
2022-09-01T11:41:35.114Z,37.50
2022-09-01T11:42:40.872Z,36.55
2022-09-01T11:43:48.023Z,35.94
2022-09-01T11:45:05.264Z,37.27
2022-09-01T11:46:25.701Z,36.17
2022-09-01T11:47:38.420Z,36.14
2022-09-01T11:48:47.022Z,36.92
2022-09-01T11:50:03.575Z,37.01
2022-09-01T11:51:05.984Z,38.13
2022-09-01T11:52:15.452Z,37.90
2022-09-01T11:53:23.722Z,37.79
2022-09-01T11:54:26.694Z,37.06
2022-09-01T11:55:37.115Z,37.34
2022-09-01T11:56:39.390Z,36.39
2022-09-01T11:57:41.610Z,35.31
2022-09-01T11:58:43.973Z,35.23
2022-09-01T11:59:46.471Z,35.08
2022-09-01T12:00:48.661Z,35.55
2022-09-01T12:01:57.972Z,36.23
2022-09-01T12:03:00.476Z,36.59
2022-09-01T12:04:23.924Z,37.41
2022-09-01T12:05:28.893Z,37.35
2022-09-01T12:06:31.092Z,37.85
2022-09-01T12:07:47.111Z,38.44
2022-09-01T12:09:07.336Z,37.10
2022-09-01T12:10:26.310Z,37.02
2022-09-01T12:11:31.689Z,36.82
2022-09-01T12:12:39.431Z,37.49
2022-09-01T12:13:53.843Z,36.77
2022-09-01T12:15:05.677Z,37.74
2022-09-01T12:16:19.202Z,38.10
2022-09-01T12:17:21.709Z,37.67
2022-09-01T12:18:27.921Z,37.87
2022-09-01T12:19:35.601Z,38.30
2022-09-01T12:20:39.071Z,38.16
2022-09-01T12:21:43.971Z,37.51
2022-09-01T12:22:46.262Z,37.02
2022-09-01T12:23:48.838Z,36.83
2022-09-01T12:24:54.762Z,36.77
2022-09-01T12:26:04.473Z,37.61
2022-09-01T12:27:06.637Z,38.29
2022-09-01T12:28:11.126Z,37.42
2022-09-01T12:29:15.440Z,37.97
2022-09-01T12:30:26.520Z,36.82
2022-09-01T12:31:28.749Z,36.16
2022-09-01T12:32:31.085Z,36.23
2022-09-01T12:33:33.776Z,36.69
2022-09-01T12:34:41.134Z,37.14
2022-09-01T12:35:43.862Z,37.33
2022-09-01T12:37:02.967Z,37.18
2022-09-01T12:38:20.695Z,37.41
2022-09-01T12:39:25.017Z,37.46
2022-09-01T12:40:35.937Z,37.31
2022-09-01T12:41:40.055Z,36.44
2022-09-01T12:42:50.821Z,37.87
2022-09-01T12:43:53.944Z,38.04
2022-09-01T12:45:08.949Z,38.17
2022-09-01T12:46:11.355Z,37.02
2022-09-01T12:47:33.543Z,36.15
2022-09-01T12:48:38.658Z,36.64
2022-09-01T12:49:45.379Z,37.04
2022-09-01T12:50:55.973Z,36.38
2022-09-01T12:52:20.375Z,35.83
2022-09-01T12:53:25.764Z,34.73
2022-09-01T12:54:27.969Z,34.24
2022-09-01T12:55:51.275Z,34.30
2022-09-01T12:56:53.762Z,34.77
2022-09-01T12:57:58.992Z,35.50
2022-09-01T12:59:15.785Z,35.43
2022-09-01T13:00:21.851Z,34.77
2022-09-01T13:01:27.716Z,34.92
2022-09-01T13:02:39.244Z,35.01
2022-09-01T13:03:41.518Z,33.57
2022-09-01T13:04:43.776Z,33.29
2022-09-01T13:05:51.812Z,32.03
2022-09-01T13:06:57.634Z,32.30
2022-09-01T13:08:04.064Z,32.02
2022-09-01T13:09:06.792Z,32.27
2022-09-01T13:10:09.004Z,32.23
2022-09-01T13:11:18.020Z,33.27
2022-09-01T13:12:21.738Z,33.97
2022-09-01T13:13:25.950Z,34.89
2022-09-01T13:14:31.179Z,34.92
2022-09-01T13:15:35.303Z,33.91
2022-09-01T13:16:37.562Z,34.16
2022-09-01T13:17:39.802Z,34.68
2022-09-01T13:20:07.712Z,34.53
2022-09-01T13:21:10.531Z,34.46
2022-09-01T13:22:12.742Z,34.05
2022-09-01T13:23:15.325Z,34.38
2022-09-01T13:24:18.609Z,34.36
2022-09-01T13:25:22.414Z,34.40
2022-09-01T13:26:24.631Z,34.40
2022-09-01T13:27:27.475Z,34.29
2022-09-01T13:28:29.669Z,34.64
2022-09-01T13:29:31.931Z,34.20
2022-09-01T13:30:35.050Z,34.45
2022-09-01T13:31:37.426Z,34.66
2022-09-01T13:33:18.923Z,34.43
2022-09-01T13:34:10.304Z,34.26
2022-09-01T13:35:16.429Z,34.59
2022-09-01T13:37:42.257Z,34.65
2022-09-01T13:38:46.087Z,33.94
2022-09-01T13:39:52.906Z,33.13
2022-09-01T13:40:55.082Z,32.55
2022-09-01T13:41:57.309Z,32.90
2022-09-01T13:42:59.487Z,33.21
2022-09-01T13:44:01.719Z,33.17
2022-09-01T13:45:04.123Z,33.24
2022-09-01T13:46:06.784Z,33.52
2022-09-01T13:50:07.613Z,32.32
2022-09-01T13:51:15.969Z,32.10
2022-09-01T13:52:21.615Z,31.90
2022-09-01T13:53:23.832Z,32.27
2022-09-01T13:54:26.097Z,32.22
2022-09-01T13:55:33.935Z,32.59
2022-09-01T13:56:37.536Z,32.48
2022-09-01T13:57:40.036Z,32.71
2022-09-01T13:58:42.190Z,32.45
2022-09-01T13:59:44.482Z,32.94
2022-09-01T14:00:47.910Z,33.07
2022-09-01T14:01:50.246Z,33.13
2022-09-01T14:02:56.352Z,33.29
2022-09-01T14:04:00.623Z,33.01
2022-09-01T14:05:03.861Z,33.07
2022-09-01T14:06:06.854Z,33.21
2022-09-01T14:07:09.140Z,33.30
2022-09-01T14:08:13.815Z,33.88
2022-09-01T14:09:17.687Z,33.35
2022-09-01T14:10:21.504Z,33.15
2022-09-01T14:11:26.474Z,33.06
2022-09-01T14:12:29.964Z,32.86
2022-09-01T14:13:32.916Z,32.94
2022-09-01T14:15:57.536Z,32.57
2022-09-01T14:16:59.758Z,31.16
2022-09-01T14:18:02.810Z,30.88
2022-09-01T14:19:05.223Z,30.64
2022-09-01T14:20:12.802Z,30.86
2022-09-01T14:21:16.916Z,30.81
2022-09-01T14:22:19.114Z,30.47
2022-09-01T14:23:21.275Z,30.49
2022-09-01T14:24:23.562Z,30.87
2022-09-01T14:25:26.123Z,31.05
2022-09-01T14:26:28.419Z,30.91
2022-09-01T14:27:30.677Z,31.19
2022-09-01T14:28:32.989Z,31.31
2022-09-01T14:29:36.436Z,31.12
2022-09-01T14:30:40.493Z,31.24
2022-09-01T14:31:44.066Z,31.24
2022-09-01T14:32:47.406Z,31.58
2022-09-01T14:33:49.864Z,31.78
2022-09-01T14:34:55.436Z,31.94
2022-09-01T14:35:58.388Z,31.98
2022-09-01T14:37:00.822Z,32.02
2022-09-01T14:38:05.241Z,31.89
2022-09-01T14:39:07.488Z,31.75
2022-09-01T14:40:16.370Z,32.08
2022-09-01T14:41:24.081Z,32.18
2022-09-01T14:42:29.084Z,32.30
2022-09-01T14:43:32.554Z,31.92
2022-09-01T14:44:38.371Z,32.01
2022-09-01T14:45:44.547Z,31.64
2022-09-01T14:46:47.277Z,31.24
2022-09-01T14:47:53.845Z,31.65
2022-09-01T14:48:56.507Z,30.91
2022-09-01T14:49:58.712Z,31.02
2022-09-01T14:51:01.370Z,30.96
2022-09-01T14:52:11.861Z,30.61
2022-09-01T14:53:14.994Z,30.62
2022-09-01T14:54:17.180Z,30.43
2022-09-01T14:55:19.674Z,30.36
2022-09-01T14:56:23.668Z,30.40
2022-09-01T14:57:30.834Z,30.49
2022-09-01T14:58:40.687Z,30.56
2022-09-01T14:59:42.950Z,30.94
2022-09-01T15:00:45.202Z,31.10
2022-09-01T15:01:48.469Z,30.75
2022-09-01T15:02:51.100Z,31.16
2022-09-01T15:03:53.807Z,31.01